sensor_id;sensor_type;location;lat;lon;timestamp;temperature;humidity
35970;DHT22;22448;51.298;6.430;2024-01-11T00:01:53;-4.90;99.90
35970;DHT22;22448;51.298;6.430;2024-01-11T00:04:20;-4.90;99.90
35970;DHT22;22448;51.298;6.430;2024-01-11T00:06:47;-4.90;99.90
35970;DHT22;22448;51.298;6.430;2024-01-11T00:09:14;-4.90;99.90
35970;DHT22;22448;51.298;6.430;2024-01-11T00:11:41;-4.90;99.90
35970;DHT22;22448;51.298;6.430;2024-01-11T00:14:08;-4.90;99.90
35970;DHT22;22448;51.298;6.430;2024-01-11T00:16:35;-4.90;99.90
35970;DHT22;22448;51.298;6.430;2024-01-11T00:19:02;-4.90;99.90
35970;DHT22;22448;51.298;6.430;2024-01-11T00:21:29;-4.90;99.90
35970;DHT22;22448;51.298;6.430;2024-01-11T00:23:56;-4.90;99.90
35970;DHT22;22448;51.298;6.430;2024-01-11T00:26:23;-4.90;99.90
35970;DHT22;22448;51.298;6.430;2024-01-11T00:28:50;-4.90;99.90
35970;DHT22;22448;51.298;6.430;2024-01-11T00:31:17;-4.90;99.90
35970;DHT22;22448;51.298;6.430;2024-01-11T00:33:44;-4.90;99.90
35970;DHT22;22448;51.298;6.430;2024-01-11T00:36:17;-4.90;99.90
35970;DHT22;22448;51.298;6.430;2024-01-11T00:38:46;-4.90;99.90
35970;DHT22;22448;51.298;6.430;2024-01-11T00:41:13;-5.00;99.90
35970;DHT22;22448;51.298;6.430;2024-01-11T00:43:40;-5.00;99.90
35970;DHT22;22448;51.298;6.430;2024-01-11T00:46:07;-5.10;99.90
35970;DHT22;22448;51.298;6.430;2024-01-11T00:48:34;-5.20;99.90
35970;DHT22;22448;51.298;6.430;2024-01-11T00:51:01;-5.20;99.90
35970;DHT22;22448;51.298;6.430;2024-01-11T00:53:30;-5.30;99.90
35970;DHT22;22448;51.298;6.430;2024-01-11T00:55:58;-5.30;99.90
35970;DHT22;22448;51.298;6.430;2024-01-11T00:58:25;-5.30;99.90
35970;DHT22;22448;51.298;6.430;2024-01-11T01:00:53;-5.40;99.90
35970;DHT22;22448;51.298;6.430;2024-01-11T01:03:23;-5.50;99.90
35970;DHT22;22448;51.298;6.430;2024-01-11T01:05:50;-5.50;99.90
35970;DHT22;22448;51.298;6.430;2024-01-11T01:08:18;-5.60;99.90
35970;DHT22;22448;51.298;6.430;2024-01-11T01:10:45;-5.70;99.90
35970;DHT22;22448;51.298;6.430;2024-01-11T01:13:12;-5.80;99.90
35970;DHT22;22448;51.298;6.430;2024-01-11T01:15:39;-5.80;99.90
35970;DHT22;22448;51.298;6.430;2024-01-11T01:18:06;-5.90;99.90
35970;DHT22;22448;51.298;6.430;2024-01-11T01:20:33;-5.90;99.90
35970;DHT22;22448;51.298;6.430;2024-01-11T01:23:01;-6.00;99.90
35970;DHT22;22448;51.298;6.430;2024-01-11T01:25:28;-6.00;99.90
35970;DHT22;22448;51.298;6.430;2024-01-11T01:27:56;-6.00;99.90
35970;DHT22;22448;51.298;6.430;2024-01-11T01:30:23;-6.10;99.90
35970;DHT22;22448;51.298;6.430;2024-01-11T01:32:50;-6.10;99.90
35970;DHT22;22448;51.298;6.430;2024-01-11T01:35:18;-6.20;99.90
35970;DHT22;22448;51.298;6.430;2024-01-11T01:37:45;-6.20;99.90
35970;DHT22;22448;51.298;6.430;2024-01-11T01:40:12;-6.20;99.90
35970;DHT22;22448;51.298;6.430;2024-01-11T01:42:43;-6.20;99.90
35970;DHT22;22448;51.298;6.430;2024-01-11T01:45:11;-6.30;99.90
35970;DHT22;22448;51.298;6.430;2024-01-11T01:47:40;-6.30;99.90
35970;DHT22;22448;51.298;6.430;2024-01-11T01:50:10;-6.20;99.90
35970;DHT22;22448;51.298;6.430;2024-01-11T01:52:40;-6.20;99.90
35970;DHT22;22448;51.298;6.430;2024-01-11T01:55:10;-6.20;99.90
35970;DHT22;22448;51.298;6.430;2024-01-11T01:57:39;-6.20;99.90
35970;DHT22;22448;51.298;6.430;2024-01-11T02:00:10;-6.20;99.90
35970;DHT22;22448;51.298;6.430;2024-01-11T02:02:39;-6.10;99.90
35970;DHT22;22448;51.298;6.430;2024-01-11T02:05:08;-6.10;99.90
35970;DHT22;22448;51.298;6.430;2024-01-11T02:07:36;-6.10;99.90
35970;DHT22;22448;51.298;6.430;2024-01-11T02:10:04;-6.10;99.90
35970;DHT22;22448;51.298;6.430;2024-01-11T02:12:32;-6.10;99.90
35970;DHT22;22448;51.298;6.430;2024-01-11T02:15:00;-6.10;99.90
35970;DHT22;22448;51.298;6.430;2024-01-11T02:17:28;-6.00;99.90
35970;DHT22;22448;51.298;6.430;2024-01-11T02:19:55;-6.00;99.90
35970;DHT22;22448;51.298;6.430;2024-01-11T02:22:31;-6.00;99.90
35970;DHT22;22448;51.298;6.430;2024-01-11T02:24:59;-6.00;99.90
35970;DHT22;22448;51.298;6.430;2024-01-11T02:27:26;-6.10;99.90
35970;DHT22;22448;51.298;6.430;2024-01-11T02:29:53;-6.10;99.90
35970;DHT22;22448;51.298;6.430;2024-01-11T02:32:20;-6.10;99.90
35970;DHT22;22448;51.298;6.430;2024-01-11T02:34:48;-6.20;99.90
35970;DHT22;22448;51.298;6.430;2024-01-11T02:37:16;-6.30;99.90
35970;DHT22;22448;51.298;6.430;2024-01-11T02:39:43;-6.30;99.90
35970;DHT22;22448;51.298;6.430;2024-01-11T02:42:10;-6.30;99.90
35970;DHT22;22448;51.298;6.430;2024-01-11T02:44:37;-6.20;99.90
35970;DHT22;22448;51.298;6.430;2024-01-11T02:47:04;-6.20;99.90
35970;DHT22;22448;51.298;6.430;2024-01-11T02:49:32;-6.20;99.90
35970;DHT22;22448;51.298;6.430;2024-01-11T02:51:59;-6.20;99.90
35970;DHT22;22448;51.298;6.430;2024-01-11T02:54:26;-6.20;99.90
35970;DHT22;22448;51.298;6.430;2024-01-11T02:56:53;-6.20;99.90
35970;DHT22;22448;51.298;6.430;2024-01-11T02:59:20;-6.20;99.90
35970;DHT22;22448;51.298;6.430;2024-01-11T03:01:47;-6.20;99.90
35970;DHT22;22448;51.298;6.430;2024-01-11T03:04:15;-6.20;99.90
35970;DHT22;22448;51.298;6.430;2024-01-11T03:06:43;-6.20;99.90
35970;DHT22;22448;51.298;6.430;2024-01-11T03:09:10;-6.10;99.90
35970;DHT22;22448;51.298;6.430;2024-01-11T03:11:38;-6.10;99.90
35970;DHT22;22448;51.298;6.430;2024-01-11T03:14:05;-6.10;99.90
35970;DHT22;22448;51.298;6.430;2024-01-11T03:16:32;-6.10;99.90
35970;DHT22;22448;51.298;6.430;2024-01-11T03:18:59;-6.10;99.90
35970;DHT22;22448;51.298;6.430;2024-01-11T03:21:26;-6.10;99.90
35970;DHT22;22448;51.298;6.430;2024-01-11T03:23:53;-6.10;99.90
35970;DHT22;22448;51.298;6.430;2024-01-11T03:26:21;-6.10;99.90
35970;DHT22;22448;51.298;6.430;2024-01-11T03:28:48;-6.10;99.90
35970;DHT22;22448;51.298;6.430;2024-01-11T03:31:16;-6.10;99.90
35970;DHT22;22448;51.298;6.430;2024-01-11T03:33:43;-6.10;99.90
35970;DHT22;22448;51.298;6.430;2024-01-11T03:36:11;-6.10;99.90
35970;DHT22;22448;51.298;6.430;2024-01-11T03:38:38;-6.10;99.90
35970;DHT22;22448;51.298;6.430;2024-01-11T03:41:08;-6.10;99.90
35970;DHT22;22448;51.298;6.430;2024-01-11T03:43:39;-6.10;99.90
35970;DHT22;22448;51.298;6.430;2024-01-11T03:46:06;-6.20;99.90
35970;DHT22;22448;51.298;6.430;2024-01-11T03:48:33;-6.20;99.90
35970;DHT22;22448;51.298;6.430;2024-01-11T03:51:03;-6.20;99.90
35970;DHT22;22448;51.298;6.430;2024-01-11T03:53:30;-6.20;99.90
35970;DHT22;22448;51.298;6.430;2024-01-11T03:56:01;-6.20;99.90
35970;DHT22;22448;51.298;6.430;2024-01-11T03:58:28;-6.30;99.90
35970;DHT22;22448;51.298;6.430;2024-01-11T04:00:55;-6.30;99.90
35970;DHT22;22448;51.298;6.430;2024-01-11T04:03:23;-6.40;99.90
35970;DHT22;22448;51.298;6.430;2024-01-11T04:05:50;-6.30;99.90
35970;DHT22;22448;51.298;6.430;2024-01-11T04:08:17;-6.30;99.90
35970;DHT22;22448;51.298;6.430;2024-01-11T04:10:44;-6.30;99.90
35970;DHT22;22448;51.298;6.430;2024-01-11T04:13:11;-6.30;99.90
35970;DHT22;22448;51.298;6.430;2024-01-11T04:15:39;-6.30;99.90
35970;DHT22;22448;51.298;6.430;2024-01-11T04:18:06;-6.30;99.90
35970;DHT22;22448;51.298;6.430;2024-01-11T04:20:34;-6.40;99.90
35970;DHT22;22448;51.298;6.430;2024-01-11T04:23:01;-6.40;99.90
35970;DHT22;22448;51.298;6.430;2024-01-11T04:25:28;-6.40;99.90
35970;DHT22;22448;51.298;6.430;2024-01-11T04:27:55;-6.40;99.90
35970;DHT22;22448;51.298;6.430;2024-01-11T04:30:22;-6.40;99.90
35970;DHT22;22448;51.298;6.430;2024-01-11T04:32:50;-6.40;99.90
35970;DHT22;22448;51.298;6.430;2024-01-11T04:35:17;-6.40;99.90
35970;DHT22;22448;51.298;6.430;2024-01-11T04:37:44;-6.30;99.90
35970;DHT22;22448;51.298;6.430;2024-01-11T04:40:11;-6.40;99.90
35970;DHT22;22448;51.298;6.430;2024-01-11T04:42:38;-6.40;99.90
35970;DHT22;22448;51.298;6.430;2024-01-11T04:45:05;-6.50;99.90
35970;DHT22;22448;51.298;6.430;2024-01-11T04:47:32;-6.50;99.90
35970;DHT22;22448;51.298;6.430;2024-01-11T04:49:59;-6.50;99.90
35970;DHT22;22448;51.298;6.430;2024-01-11T04:52:26;-6.50;99.90
35970;DHT22;22448;51.298;6.430;2024-01-11T04:54:53;-6.50;99.90
35970;DHT22;22448;51.298;6.430;2024-01-11T04:57:20;-6.50;99.90
35970;DHT22;22448;51.298;6.430;2024-01-11T04:59:47;-6.40;99.90
35970;DHT22;22448;51.298;6.430;2024-01-11T05:02:14;-6.40;99.90
35970;DHT22;22448;51.298;6.430;2024-01-11T05:04:42;-6.40;99.90
35970;DHT22;22448;51.298;6.430;2024-01-11T05:07:09;-6.50;99.90
35970;DHT22;22448;51.298;6.430;2024-01-11T05:09:36;-6.40;99.90
35970;DHT22;22448;51.298;6.430;2024-01-11T05:12:03;-6.40;99.90
35970;DHT22;22448;51.298;6.430;2024-01-11T05:14:31;-6.50;99.90
35970;DHT22;22448;51.298;6.430;2024-01-11T05:16:58;-6.50;99.90
35970;DHT22;22448;51.298;6.430;2024-01-11T05:19:25;-6.50;99.90
35970;DHT22;22448;51.298;6.430;2024-01-11T05:21:52;-6.50;99.90
35970;DHT22;22448;51.298;6.430;2024-01-11T05:24:19;-6.50;99.90
35970;DHT22;22448;51.298;6.430;2024-01-11T05:26:46;-6.50;99.90
35970;DHT22;22448;51.298;6.430;2024-01-11T05:29:14;-6.50;99.90
35970;DHT22;22448;51.298;6.430;2024-01-11T05:31:41;-6.50;99.90
35970;DHT22;22448;51.298;6.430;2024-01-11T05:34:08;-6.50;99.90
35970;DHT22;22448;51.298;6.430;2024-01-11T05:36:39;-6.50;99.90
35970;DHT22;22448;51.298;6.430;2024-01-11T05:39:06;-6.50;99.90
35970;DHT22;22448;51.298;6.430;2024-01-11T05:41:33;-6.60;99.90
35970;DHT22;22448;51.298;6.430;2024-01-11T05:44:00;-6.60;99.90
35970;DHT22;22448;51.298;6.430;2024-01-11T05:46:27;-6.60;99.90
35970;DHT22;22448;51.298;6.430;2024-01-11T05:48:58;-6.60;99.90
35970;DHT22;22448;51.298;6.430;2024-01-11T05:51:25;-6.60;99.90
35970;DHT22;22448;51.298;6.430;2024-01-11T05:53:53;-6.70;99.90
35970;DHT22;22448;51.298;6.430;2024-01-11T05:56:21;-6.60;99.90
35970;DHT22;22448;51.298;6.430;2024-01-11T05:58:48;-6.70;99.90
35970;DHT22;22448;51.298;6.430;2024-01-11T06:01:15;-6.70;99.90
35970;DHT22;22448;51.298;6.430;2024-01-11T06:03:42;-6.70;99.90
35970;DHT22;22448;51.298;6.430;2024-01-11T06:06:09;-6.70;99.90
35970;DHT22;22448;51.298;6.430;2024-01-11T06:08:36;-6.70;99.90
35970;DHT22;22448;51.298;6.430;2024-01-11T06:11:04;-6.70;99.90
35970;DHT22;22448;51.298;6.430;2024-01-11T06:13:31;-6.70;99.90
35970;DHT22;22448;51.298;6.430;2024-01-11T06:15:58;-6.70;99.90
35970;DHT22;22448;51.298;6.430;2024-01-11T06:18:25;-6.70;99.90
35970;DHT22;22448;51.298;6.430;2024-01-11T06:20:52;-6.70;99.90
35970;DHT22;22448;51.298;6.430;2024-01-11T06:23:20;-6.60;99.90
35970;DHT22;22448;51.298;6.430;2024-01-11T06:25:47;-6.70;99.90
35970;DHT22;22448;51.298;6.430;2024-01-11T06:28:14;-6.70;99.90
35970;DHT22;22448;51.298;6.430;2024-01-11T06:30:41;-6.70;99.90
35970;DHT22;22448;51.298;6.430;2024-01-11T06:33:10;-6.70;99.90
35970;DHT22;22448;51.298;6.430;2024-01-11T06:35:37;-6.70;99.90
35970;DHT22;22448;51.298;6.430;2024-01-11T06:38:04;-6.70;99.90
35970;DHT22;22448;51.298;6.430;2024-01-11T06:40:31;-6.80;99.90
35970;DHT22;22448;51.298;6.430;2024-01-11T06:42:58;-6.80;99.90
35970;DHT22;22448;51.298;6.430;2024-01-11T06:45:25;-6.90;99.90
35970;DHT22;22448;51.298;6.430;2024-01-11T06:47:52;-6.90;99.90
35970;DHT22;22448;51.298;6.430;2024-01-11T06:50:20;-6.90;99.90
35970;DHT22;22448;51.298;6.430;2024-01-11T06:52:47;-6.90;99.90
35970;DHT22;22448;51.298;6.430;2024-01-11T06:55:14;-6.90;99.90
35970;DHT22;22448;51.298;6.430;2024-01-11T06:57:41;-7.00;99.90
35970;DHT22;22448;51.298;6.430;2024-01-11T07:00:08;-6.90;99.90
35970;DHT22;22448;51.298;6.430;2024-01-11T07:02:35;-7.00;99.90
35970;DHT22;22448;51.298;6.430;2024-01-11T07:05:03;-6.90;99.90
35970;DHT22;22448;51.298;6.430;2024-01-11T07:07:30;-6.90;99.90
35970;DHT22;22448;51.298;6.430;2024-01-11T07:09:57;-6.90;99.90
35970;DHT22;22448;51.298;6.430;2024-01-11T07:12:24;-6.90;99.90
35970;DHT22;22448;51.298;6.430;2024-01-11T07:14:52;-6.90;99.90
35970;DHT22;22448;51.298;6.430;2024-01-11T07:17:19;-6.90;99.90
35970;DHT22;22448;51.298;6.430;2024-01-11T07:19:46;-6.90;99.90
35970;DHT22;22448;51.298;6.430;2024-01-11T07:22:13;-6.90;99.90
35970;DHT22;22448;51.298;6.430;2024-01-11T07:24:40;-6.90;99.90
35970;DHT22;22448;51.298;6.430;2024-01-11T07:27:07;-6.90;99.90
35970;DHT22;22448;51.298;6.430;2024-01-11T07:29:34;-6.90;99.90
35970;DHT22;22448;51.298;6.430;2024-01-11T07:32:02;-6.80;99.90
35970;DHT22;22448;51.298;6.430;2024-01-11T07:34:31;-6.80;99.90
35970;DHT22;22448;51.298;6.430;2024-01-11T07:36:59;-6.80;99.90
35970;DHT22;22448;51.298;6.430;2024-01-11T07:39:26;-6.80;99.90
35970;DHT22;22448;51.298;6.430;2024-01-11T07:41:53;-6.70;99.90
35970;DHT22;22448;51.298;6.430;2024-01-11T07:44:20;-6.80;99.90
35970;DHT22;22448;51.298;6.430;2024-01-11T07:46:47;-6.70;99.90
35970;DHT22;22448;51.298;6.430;2024-01-11T07:49:21;-6.70;99.90
35970;DHT22;22448;51.298;6.430;2024-01-11T07:51:48;-6.70;99.90
35970;DHT22;22448;51.298;6.430;2024-01-11T07:54:15;-6.70;99.90
35970;DHT22;22448;51.298;6.430;2024-01-11T07:56:42;-6.70;99.90
35970;DHT22;22448;51.298;6.430;2024-01-11T07:59:10;-6.70;99.90
35970;DHT22;22448;51.298;6.430;2024-01-11T08:01:42;-6.60;99.90
35970;DHT22;22448;51.298;6.430;2024-01-11T08:04:09;-6.60;99.90
35970;DHT22;22448;51.298;6.430;2024-01-11T08:06:36;-6.60;99.90
35970;DHT22;22448;51.298;6.430;2024-01-11T08:09:04;-6.60;99.90
35970;DHT22;22448;51.298;6.430;2024-01-11T08:11:32;-6.60;99.90
35970;DHT22;22448;51.298;6.430;2024-01-11T08:14:04;-6.60;99.90
35970;DHT22;22448;51.298;6.430;2024-01-11T08:16:33;-6.50;99.90
35970;DHT22;22448;51.298;6.430;2024-01-11T08:19:00;-6.50;99.90
35970;DHT22;22448;51.298;6.430;2024-01-11T08:21:30;-6.50;99.90
35970;DHT22;22448;51.298;6.430;2024-01-11T08:23:57;-6.40;99.90
35970;DHT22;22448;51.298;6.430;2024-01-11T08:26:29;-6.40;99.90
35970;DHT22;22448;51.298;6.430;2024-01-11T08:28:57;-6.40;99.90
35970;DHT22;22448;51.298;6.430;2024-01-11T08:31:25;-6.30;99.90
35970;DHT22;22448;51.298;6.430;2024-01-11T08:33:52;-6.30;99.90
35970;DHT22;22448;51.298;6.430;2024-01-11T08:36:20;-6.20;99.90
35970;DHT22;22448;51.298;6.430;2024-01-11T08:38:47;-6.10;99.90
35970;DHT22;22448;51.298;6.430;2024-01-11T08:41:14;-6.10;99.90
35970;DHT22;22448;51.298;6.430;2024-01-11T08:43:41;-6.00;99.90
35970;DHT22;22448;51.298;6.430;2024-01-11T08:46:08;-5.90;99.90
35970;DHT22;22448;51.298;6.430;2024-01-11T08:48:35;-5.90;99.90
35970;DHT22;22448;51.298;6.430;2024-01-11T08:51:03;-5.80;99.90
35970;DHT22;22448;51.298;6.430;2024-01-11T08:53:30;-5.70;99.90
35970;DHT22;22448;51.298;6.430;2024-01-11T08:55:57;-5.60;99.90
35970;DHT22;22448;51.298;6.430;2024-01-11T08:58:25;-5.50;99.90
35970;DHT22;22448;51.298;6.430;2024-01-11T09:00:52;-5.40;99.90
35970;DHT22;22448;51.298;6.430;2024-01-11T09:03:19;-5.30;99.90
35970;DHT22;22448;51.298;6.430;2024-01-11T09:05:46;-5.20;99.90
35970;DHT22;22448;51.298;6.430;2024-01-11T09:08:13;-5.10;99.90
35970;DHT22;22448;51.298;6.430;2024-01-11T09:10:40;-5.00;99.90
35970;DHT22;22448;51.298;6.430;2024-01-11T09:13:08;-4.90;99.90
35970;DHT22;22448;51.298;6.430;2024-01-11T09:15:38;-4.80;99.90
35970;DHT22;22448;51.298;6.430;2024-01-11T09:18:05;-4.70;99.90
35970;DHT22;22448;51.298;6.430;2024-01-11T09:20:33;-4.70;99.90
35970;DHT22;22448;51.298;6.430;2024-01-11T09:23:01;-4.60;99.90
35970;DHT22;22448;51.298;6.430;2024-01-11T09:25:30;-4.50;99.90
35970;DHT22;22448;51.298;6.430;2024-01-11T09:27:58;-4.50;99.90
35970;DHT22;22448;51.298;6.430;2024-01-11T09:30:25;-4.40;99.90
35970;DHT22;22448;51.298;6.430;2024-01-11T09:32:52;-4.30;99.90
35970;DHT22;22448;51.298;6.430;2024-01-11T09:35:20;-4.30;99.90
35970;DHT22;22448;51.298;6.430;2024-01-11T09:37:46;-4.20;99.90
35970;DHT22;22448;51.298;6.430;2024-01-11T09:40:14;-4.20;99.90
35970;DHT22;22448;51.298;6.430;2024-01-11T09:42:41;-4.20;99.90
35970;DHT22;22448;51.298;6.430;2024-01-11T09:45:13;-4.10;99.90
35970;DHT22;22448;51.298;6.430;2024-01-11T09:47:44;-4.10;99.90
35970;DHT22;22448;51.298;6.430;2024-01-11T09:50:14;-4.00;99.90
35970;DHT22;22448;51.298;6.430;2024-01-11T09:52:46;-4.00;99.90
35970;DHT22;22448;51.298;6.430;2024-01-11T09:55:17;-3.90;99.90
35970;DHT22;22448;51.298;6.430;2024-01-11T09:57:48;-3.90;99.90
35970;DHT22;22448;51.298;6.430;2024-01-11T10:00:19;-3.90;99.90
35970;DHT22;22448;51.298;6.430;2024-01-11T10:02:48;-3.90;99.90
35970;DHT22;22448;51.298;6.430;2024-01-11T10:05:17;-3.80;99.90
35970;DHT22;22448;51.298;6.430;2024-01-11T10:07:44;-3.80;99.90
35970;DHT22;22448;51.298;6.430;2024-01-11T10:10:12;-3.70;99.90
35970;DHT22;22448;51.298;6.430;2024-01-11T10:12:42;-3.60;99.90
35970;DHT22;22448;51.298;6.430;2024-01-11T10:15:09;-3.60;99.90
35970;DHT22;22448;51.298;6.430;2024-01-11T10:17:46;-3.50;99.90
35970;DHT22;22448;51.298;6.430;2024-01-11T10:20:14;-3.50;99.90
35970;DHT22;22448;51.298;6.430;2024-01-11T10:22:46;-3.50;99.90
35970;DHT22;22448;51.298;6.430;2024-01-11T10:25:15;-3.40;99.90
35970;DHT22;22448;51.298;6.430;2024-01-11T10:27:43;-3.30;99.90
35970;DHT22;22448;51.298;6.430;2024-01-11T10:30:12;-3.30;99.90
35970;DHT22;22448;51.298;6.430;2024-01-11T10:32:53;-3.20;99.90
35970;DHT22;22448;51.298;6.430;2024-01-11T10:35:20;-3.20;99.90
35970;DHT22;22448;51.298;6.430;2024-01-11T10:37:51;-3.20;99.90
35970;DHT22;22448;51.298;6.430;2024-01-11T10:40:20;-3.10;99.90
35970;DHT22;22448;51.298;6.430;2024-01-11T10:42:51;-3.10;99.90
35970;DHT22;22448;51.298;6.430;2024-01-11T10:45:20;-3.10;99.90
35970;DHT22;22448;51.298;6.430;2024-01-11T10:48:00;-3.00;99.90
35970;DHT22;22448;51.298;6.430;2024-01-11T10:50:33;-3.00;99.90
35970;DHT22;22448;51.298;6.430;2024-01-11T10:53:31;-2.90;99.90
35970;DHT22;22448;51.298;6.430;2024-01-11T10:56:05;-2.90;99.90
35970;DHT22;22448;51.298;6.430;2024-01-11T10:58:34;-2.80;99.90
35970;DHT22;22448;51.298;6.430;2024-01-11T11:01:02;-2.80;99.90
35970;DHT22;22448;51.298;6.430;2024-01-11T11:03:31;-2.80;99.90
35970;DHT22;22448;51.298;6.430;2024-01-11T11:06:01;-2.80;99.90
35970;DHT22;22448;51.298;6.430;2024-01-11T11:08:28;-2.70;99.90
35970;DHT22;22448;51.298;6.430;2024-01-11T11:10:57;-2.70;99.90
35970;DHT22;22448;51.298;6.430;2024-01-11T11:13:25;-2.60;99.90
35970;DHT22;22448;51.298;6.430;2024-01-11T11:15:53;-2.60;99.90
35970;DHT22;22448;51.298;6.430;2024-01-11T11:18:20;-2.50;99.90
35970;DHT22;22448;51.298;6.430;2024-01-11T11:20:48;-2.50;99.90
35970;DHT22;22448;51.298;6.430;2024-01-11T11:23:16;-2.50;99.90
35970;DHT22;22448;51.298;6.430;2024-01-11T11:25:47;-2.40;99.90
35970;DHT22;22448;51.298;6.430;2024-01-11T11:28:16;-2.40;99.90
35970;DHT22;22448;51.298;6.430;2024-01-11T11:30:44;-2.40;99.90
35970;DHT22;22448;51.298;6.430;2024-01-11T11:35:48;-2.30;99.90
35970;DHT22;22448;51.298;6.430;2024-01-11T11:38:21;-2.20;99.90
35970;DHT22;22448;51.298;6.430;2024-01-11T11:40:51;-2.20;99.90
35970;DHT22;22448;51.298;6.430;2024-01-11T11:43:20;-2.10;99.90
35970;DHT22;22448;51.298;6.430;2024-01-11T11:45:49;-2.10;99.90
35970;DHT22;22448;51.298;6.430;2024-01-11T11:51:09;-2.00;99.90
35970;DHT22;22448;51.298;6.430;2024-01-11T11:53:40;-1.90;99.90
35970;DHT22;22448;51.298;6.430;2024-01-11T11:56:08;-1.80;99.90
35970;DHT22;22448;51.298;6.430;2024-01-11T11:58:39;-1.70;99.90
35970;DHT22;22448;51.298;6.430;2024-01-11T12:01:06;-1.80;99.90
35970;DHT22;22448;51.298;6.430;2024-01-11T12:03:46;-1.70;99.90
35970;DHT22;22448;51.298;6.430;2024-01-11T12:06:18;-1.70;99.90
35970;DHT22;22448;51.298;6.430;2024-01-11T12:08:47;-1.60;99.90
35970;DHT22;22448;51.298;6.430;2024-01-11T12:11:18;-1.60;99.90
35970;DHT22;22448;51.298;6.430;2024-01-11T12:13:49;-1.50;99.90
35970;DHT22;22448;51.298;6.430;2024-01-11T12:16:16;-1.50;99.90
35970;DHT22;22448;51.298;6.430;2024-01-11T12:18:43;-1.50;99.90
35970;DHT22;22448;51.298;6.430;2024-01-11T12:21:11;-1.50;99.90
35970;DHT22;22448;51.298;6.430;2024-01-11T12:23:39;-1.40;99.90
35970;DHT22;22448;51.298;6.430;2024-01-11T12:26:07;-1.40;99.90
35970;DHT22;22448;51.298;6.430;2024-01-11T12:28:40;-1.30;99.90
35970;DHT22;22448;51.298;6.430;2024-01-11T12:31:09;-1.30;99.90
35970;DHT22;22448;51.298;6.430;2024-01-11T12:33:37;-1.20;99.90
35970;DHT22;22448;51.298;6.430;2024-01-11T12:36:06;-1.20;99.90
35970;DHT22;22448;51.298;6.430;2024-01-11T12:38:35;-1.20;99.90
35970;DHT22;22448;51.298;6.430;2024-01-11T12:41:04;-1.10;99.90
35970;DHT22;22448;51.298;6.430;2024-01-11T12:43:31;-1.00;99.90
35970;DHT22;22448;51.298;6.430;2024-01-11T12:45:58;-0.90;99.90
35970;DHT22;22448;51.298;6.430;2024-01-11T12:48:26;-0.90;99.90
35970;DHT22;22448;51.298;6.430;2024-01-11T12:50:53;-0.70;99.90
35970;DHT22;22448;51.298;6.430;2024-01-11T12:53:40;-0.70;99.90
35970;DHT22;22448;51.298;6.430;2024-01-11T12:56:08;-0.80;99.90
35970;DHT22;22448;51.298;6.430;2024-01-11T12:58:37;-0.70;99.90
35970;DHT22;22448;51.298;6.430;2024-01-11T13:01:05;-0.70;99.90
35970;DHT22;22448;51.298;6.430;2024-01-11T13:03:35;-0.70;99.90
35970;DHT22;22448;51.298;6.430;2024-01-11T13:06:03;-0.70;99.90
35970;DHT22;22448;51.298;6.430;2024-01-11T13:08:32;-0.70;99.90
35970;DHT22;22448;51.298;6.430;2024-01-11T13:10:59;-0.70;99.90
35970;DHT22;22448;51.298;6.430;2024-01-11T13:13:28;-0.70;99.90
35970;DHT22;22448;51.298;6.430;2024-01-11T13:15:57;-0.70;99.90
35970;DHT22;22448;51.298;6.430;2024-01-11T13:18:25;-0.70;99.90
35970;DHT22;22448;51.298;6.430;2024-01-11T13:20:52;-0.70;99.90
35970;DHT22;22448;51.298;6.430;2024-01-11T13:23:20;-0.70;99.90
35970;DHT22;22448;51.298;6.430;2024-01-11T13:25:50;-0.70;99.90
35970;DHT22;22448;51.298;6.430;2024-01-11T13:28:18;-0.70;99.90
35970;DHT22;22448;51.298;6.430;2024-01-11T13:30:46;-0.80;99.90
35970;DHT22;22448;51.298;6.430;2024-01-11T13:33:15;-0.70;99.90
35970;DHT22;22448;51.298;6.430;2024-01-11T13:35:46;-0.70;99.90
35970;DHT22;22448;51.298;6.430;2024-01-11T13:38:13;-0.70;99.90
35970;DHT22;22448;51.298;6.430;2024-01-11T13:40:41;-0.70;99.90
35970;DHT22;22448;51.298;6.430;2024-01-11T13:43:10;-0.70;99.90
35970;DHT22;22448;51.298;6.430;2024-01-11T13:45:37;-0.80;99.90
35970;DHT22;22448;51.298;6.430;2024-01-11T13:48:05;-0.70;99.90
35970;DHT22;22448;51.298;6.430;2024-01-11T13:50:33;-0.70;99.90
35970;DHT22;22448;51.298;6.430;2024-01-11T13:53:00;-0.70;99.90
35970;DHT22;22448;51.298;6.430;2024-01-11T13:55:29;-0.70;99.90
35970;DHT22;22448;51.298;6.430;2024-01-11T13:58:06;-0.70;99.90
35970;DHT22;22448;51.298;6.430;2024-01-11T14:00:33;-0.70;99.90
35970;DHT22;22448;51.298;6.430;2024-01-11T14:03:00;-0.60;99.90
35970;DHT22;22448;51.298;6.430;2024-01-11T14:05:28;-0.70;99.90
35970;DHT22;22448;51.298;6.430;2024-01-11T14:07:55;-0.70;99.90
35970;DHT22;22448;51.298;6.430;2024-01-11T14:10:27;-0.80;99.90
35970;DHT22;22448;51.298;6.430;2024-01-11T14:12:54;-0.80;99.90
35970;DHT22;22448;51.298;6.430;2024-01-11T14:15:22;-0.90;99.90
35970;DHT22;22448;51.298;6.430;2024-01-11T14:17:49;-0.90;99.90
35970;DHT22;22448;51.298;6.430;2024-01-11T14:20:17;-0.90;99.90
35970;DHT22;22448;51.298;6.430;2024-01-11T14:22:45;-0.90;99.90
35970;DHT22;22448;51.298;6.430;2024-01-11T14:25:20;-0.90;99.90
35970;DHT22;22448;51.298;6.430;2024-01-11T14:27:48;-0.90;99.90
35970;DHT22;22448;51.298;6.430;2024-01-11T14:30:16;-0.90;99.90
35970;DHT22;22448;51.298;6.430;2024-01-11T14:32:43;-0.90;99.90
35970;DHT22;22448;51.298;6.430;2024-01-11T14:35:10;-0.90;99.90
35970;DHT22;22448;51.298;6.430;2024-01-11T14:37:38;-0.90;99.90
35970;DHT22;22448;51.298;6.430;2024-01-11T14:40:07;-0.90;99.90
35970;DHT22;22448;51.298;6.430;2024-01-11T14:42:37;-1.00;99.90
35970;DHT22;22448;51.298;6.430;2024-01-11T14:45:05;-1.10;99.90
35970;DHT22;22448;51.298;6.430;2024-01-11T14:47:33;-1.10;99.90
35970;DHT22;22448;51.298;6.430;2024-01-11T14:50:01;-1.10;99.90
35970;DHT22;22448;51.298;6.430;2024-01-11T14:52:31;-1.10;99.90
35970;DHT22;22448;51.298;6.430;2024-01-11T14:54:58;-1.10;99.90
35970;DHT22;22448;51.298;6.430;2024-01-11T14:57:25;-1.20;99.90
35970;DHT22;22448;51.298;6.430;2024-01-11T14:59:53;-1.10;99.90
35970;DHT22;22448;51.298;6.430;2024-01-11T15:02:20;-1.20;99.90
35970;DHT22;22448;51.298;6.430;2024-01-11T15:04:47;-1.20;99.90
35970;DHT22;22448;51.298;6.430;2024-01-11T15:07:14;-1.20;99.90
35970;DHT22;22448;51.298;6.430;2024-01-11T15:09:41;-1.20;99.90
35970;DHT22;22448;51.298;6.430;2024-01-11T15:12:08;-1.30;99.90
35970;DHT22;22448;51.298;6.430;2024-01-11T15:14:35;-1.40;99.90
35970;DHT22;22448;51.298;6.430;2024-01-11T15:17:02;-1.40;99.90
35970;DHT22;22448;51.298;6.430;2024-01-11T15:19:30;-1.50;99.90
35970;DHT22;22448;51.298;6.430;2024-01-11T15:21:57;-1.50;99.90
35970;DHT22;22448;51.298;6.430;2024-01-11T15:24:24;-1.60;99.90
35970;DHT22;22448;51.298;6.430;2024-01-11T15:26:51;-1.50;99.90
35970;DHT22;22448;51.298;6.430;2024-01-11T15:29:18;-1.60;99.90
35970;DHT22;22448;51.298;6.430;2024-01-11T15:31:45;-1.70;99.90
35970;DHT22;22448;51.298;6.430;2024-01-11T15:34:13;-1.70;99.90
35970;DHT22;22448;51.298;6.430;2024-01-11T15:36:42;-1.70;99.90
35970;DHT22;22448;51.298;6.430;2024-01-11T15:39:09;-1.80;99.90
35970;DHT22;22448;51.298;6.430;2024-01-11T15:41:53;-1.80;99.90